createdAt,value
2018-07-15T00:00:50.884Z,12.40
2018-07-15T00:01:50.876Z,12.40
2018-07-15T00:02:50.875Z,13.10
2018-07-15T00:03:50.879Z,14.30
2018-07-15T00:04:50.877Z,13.40
2018-07-15T00:05:50.872Z,12.60
2018-07-15T00:06:50.869Z,13.40
2018-07-15T00:07:50.871Z,12.10
2018-07-15T00:08:50.866Z,13.30
2018-07-15T00:09:50.872Z,12.00
2018-07-15T00:10:50.871Z,13.50
2018-07-15T00:11:50.870Z,12.20
2018-07-15T00:12:50.866Z,12.80
2018-07-15T00:13:50.862Z,12.90
2018-07-15T00:14:50.859Z,12.60
2018-07-15T00:15:50.858Z,12.70
2018-07-15T00:16:50.856Z,12.00
2018-07-15T00:17:50.859Z,14.00
2018-07-15T00:18:50.858Z,13.30
2018-07-15T00:19:50.852Z,12.50
2018-07-15T00:20:50.850Z,12.50
2018-07-15T00:21:50.853Z,12.50
2018-07-15T00:22:50.851Z,12.80
2018-07-15T00:23:50.852Z,13.30
2018-07-15T00:24:50.848Z,12.50
2018-07-15T00:25:50.842Z,12.50
2018-07-15T00:26:50.842Z,12.80
2018-07-15T00:27:50.841Z,12.80
2018-07-15T00:28:50.837Z,12.70
2018-07-15T00:29:50.841Z,12.20
2018-07-15T00:30:50.840Z,12.30
2018-07-15T00:31:50.842Z,12.40
2018-07-15T00:32:50.837Z,12.40
2018-07-15T00:33:50.830Z,12.40
2018-07-15T00:34:50.830Z,12.40
2018-07-15T00:35:50.832Z,12.50
2018-07-15T00:36:50.831Z,12.40
2018-07-15T00:37:50.828Z,12.60
2018-07-15T00:38:50.822Z,12.10
2018-07-15T00:39:50.822Z,13.20
2018-07-15T00:40:50.820Z,12.90
2018-07-15T00:41:50.822Z,12.70
2018-07-15T00:42:50.821Z,12.40
2018-07-15T00:43:50.820Z,12.30
2018-07-15T00:44:50.817Z,12.70
2018-07-15T00:45:50.810Z,13.90
2018-07-15T00:46:50.809Z,12.10
2018-07-15T00:47:50.807Z,13.10
2018-07-15T00:48:50.806Z,12.40
2018-07-15T00:49:50.808Z,12.50
2018-07-15T00:50:50.806Z,12.60
2018-07-15T00:51:50.801Z,12.50
2018-07-15T00:52:50.798Z,12.40
2018-07-15T00:53:50.802Z,12.40
2018-07-15T00:54:50.806Z,13.00
2018-07-15T00:55:50.799Z,12.50
2018-07-15T00:56:50.795Z,14.00
2018-07-15T00:57:50.793Z,13.30
2018-07-15T00:58:50.788Z,13.30
2018-07-15T00:59:50.787Z,13.20
2018-07-15T01:00:50.785Z,12.50
2018-07-15T01:01:50.793Z,12.80
2018-07-15T01:02:50.787Z,12.80
2018-07-15T01:03:50.784Z,12.80
2018-07-15T01:04:50.786Z,12.30
2018-07-15T01:05:50.777Z,12.40
2018-07-15T01:06:50.779Z,13.40
2018-07-15T01:07:50.779Z,12.60
2018-07-15T01:08:50.775Z,13.50
2018-07-15T01:09:50.769Z,12.80
2018-07-15T01:10:50.767Z,13.00
2018-07-15T01:11:50.766Z,12.40
2018-07-15T01:12:50.764Z,12.50
2018-07-15T01:13:50.765Z,12.50
2018-07-15T01:14:50.763Z,12.20
2018-07-15T01:15:50.762Z,12.40
2018-07-15T01:16:50.760Z,12.40
2018-07-15T01:17:50.753Z,12.40
2018-07-15T01:18:50.758Z,12.60
2018-07-15T01:19:50.752Z,12.30
2018-07-15T01:20:50.749Z,13.10
2018-07-15T01:21:50.752Z,12.80
2018-07-15T01:22:50.750Z,12.80
2018-07-15T01:23:50.747Z,13.80
2018-07-15T01:24:50.745Z,13.00
2018-07-15T01:25:50.744Z,13.90
2018-07-15T01:26:50.742Z,12.70
2018-07-15T01:27:50.741Z,13.50
2018-07-15T01:28:50.738Z,14.10
2018-07-15T01:29:50.732Z,13.30
2018-07-15T01:30:50.729Z,12.80
2018-07-15T01:31:50.728Z,13.40
2018-07-15T01:32:50.755Z,12.70
2018-07-15T01:33:50.728Z,13.60
2018-07-15T01:34:50.727Z,12.90
2018-07-15T01:35:50.726Z,13.30
2018-07-15T01:36:50.722Z,13.90
2018-07-15T01:37:50.717Z,14.20
2018-07-15T01:38:50.714Z,13.30
2018-07-15T01:39:50.717Z,13.40
2018-07-15T01:40:50.713Z,13.70
2018-07-15T01:41:50.708Z,13.50
2018-07-15T01:42:50.705Z,12.90
2018-07-15T01:43:50.705Z,14.20
2018-07-15T01:44:50.702Z,13.60
2018-07-15T01:45:50.704Z,13.50
2018-07-15T01:46:50.703Z,14.20
2018-07-15T01:47:50.700Z,13.00
2018-07-15T01:48:50.697Z,13.60
2018-07-15T01:49:50.691Z,13.10
2018-07-15T01:50:50.690Z,12.90
2018-07-15T01:51:50.688Z,13.50
2018-07-15T01:52:50.684Z,13.30
2018-07-15T01:53:50.686Z,13.20
2018-07-15T01:54:50.684Z,13.30
2018-07-15T01:55:50.678Z,13.20
2018-07-15T01:56:50.679Z,13.60
2018-07-15T01:57:50.681Z,13.10
2018-07-15T01:58:50.676Z,14.20
2018-07-15T01:59:50.675Z,13.80
2018-07-15T02:00:50.673Z,15.00
2018-07-15T02:01:50.665Z,13.80
2018-07-15T02:02:50.662Z,13.70
2018-07-15T02:03:50.660Z,13.50
2018-07-15T02:04:50.709Z,14.30
2018-07-15T02:05:50.661Z,13.90
2018-07-15T02:06:50.659Z,15.40
2018-07-15T02:07:50.661Z,14.80
2018-07-15T02:08:50.652Z,14.00
2018-07-15T02:09:50.647Z,14.40
2018-07-15T02:10:50.646Z,14.60
2018-07-15T02:11:50.648Z,14.80
2018-07-15T02:12:50.644Z,13.60
2018-07-15T02:13:50.641Z,15.70
2018-07-15T02:14:50.635Z,14.00
2018-07-15T02:15:50.637Z,14.80
2018-07-15T02:16:50.630Z,14.40
2018-07-15T02:17:50.634Z,15.10
2018-07-15T02:18:50.630Z,15.10
2018-07-15T02:19:50.629Z,14.20
2018-07-15T02:20:50.628Z,14.30
2018-07-15T02:21:50.618Z,15.20
2018-07-15T02:22:50.619Z,14.20
2018-07-15T02:23:50.614Z,14.40
2018-07-15T02:24:50.613Z,14.80
2018-07-15T02:25:50.614Z,15.00
2018-07-15T02:26:50.610Z,14.10
2018-07-15T02:27:50.605Z,14.60
2018-07-15T02:28:50.604Z,14.00
2018-07-15T02:29:50.603Z,14.00
2018-07-15T02:30:50.605Z,14.90
2018-07-15T02:31:50.609Z,14.10
2018-07-15T02:32:50.597Z,14.10
2018-07-15T02:33:50.590Z,14.80
2018-07-15T02:34:50.590Z,14.70
2018-07-15T02:35:50.590Z,14.90
2018-07-15T02:36:50.637Z,14.30
2018-07-15T02:37:50.585Z,14.60
2018-07-15T02:38:50.582Z,14.30
2018-07-15T02:39:50.581Z,14.00
2018-07-15T02:40:50.578Z,14.20
2018-07-15T02:41:50.571Z,14.40
2018-07-15T02:42:50.571Z,14.40
2018-07-15T02:43:50.572Z,13.70
2018-07-15T02:44:50.571Z,15.30
2018-07-15T02:45:50.564Z,15.60
2018-07-15T02:46:50.584Z,13.80
2018-07-15T02:47:50.563Z,14.10
2018-07-15T02:48:50.553Z,15.00
2018-07-15T02:49:50.553Z,14.20
2018-07-15T02:50:50.553Z,14.00
2018-07-15T02:51:50.549Z,14.00
2018-07-15T02:52:50.551Z,14.60
2018-07-15T02:53:50.540Z,13.90
2018-07-15T02:54:50.537Z,15.50
2018-07-15T02:55:50.535Z,13.90
2018-07-15T02:56:50.540Z,14.00
2018-07-15T02:57:50.533Z,14.90
2018-07-15T02:58:50.532Z,15.20
2018-07-15T02:59:50.525Z,14.10
2018-07-15T03:00:50.526Z,14.60
2018-07-15T03:01:50.525Z,14.30
2018-07-15T03:02:50.522Z,13.60
2018-07-15T03:03:50.521Z,13.70
2018-07-15T03:04:50.517Z,14.20
2018-07-15T03:05:50.510Z,14.80
2018-07-15T03:06:50.507Z,13.90
2018-07-15T03:07:50.504Z,13.70
2018-07-15T03:08:50.502Z,13.80
2018-07-15T03:09:50.502Z,15.20
2018-07-15T03:10:50.500Z,15.70
2018-07-15T03:11:50.500Z,14.30
2018-07-15T03:12:50.497Z,15.20
2018-07-15T03:13:50.489Z,14.70
2018-07-15T03:14:50.491Z,14.20
2018-07-15T03:15:50.487Z,15.70
2018-07-15T03:16:50.486Z,16.00
2018-07-15T03:17:50.478Z,14.20
2018-07-15T03:18:50.476Z,16.10
2018-07-15T03:19:50.489Z,15.50
2018-07-15T03:20:50.469Z,15.60
2018-07-15T03:21:50.471Z,14.10
2018-07-15T03:22:50.469Z,15.10
2018-07-15T03:23:50.468Z,15.30
2018-07-15T03:24:50.464Z,16.10
2018-07-15T03:25:50.456Z,15.10
2018-07-15T03:26:50.457Z,14.90
2018-07-15T03:27:50.452Z,14.60
2018-07-15T03:28:50.448Z,15.40
2018-07-15T03:29:50.450Z,14.50
2018-07-15T03:30:50.449Z,15.10
2018-07-15T03:31:50.442Z,16.40
2018-07-15T03:32:50.438Z,16.00
2018-07-15T03:33:50.441Z,14.50
2018-07-15T03:34:50.438Z,14.60
2018-07-15T03:35:50.435Z,16.10
2018-07-15T03:36:50.431Z,15.40
2018-07-15T03:37:50.425Z,15.90
2018-07-15T03:38:50.423Z,14.70
2018-07-15T03:39:50.428Z,15.30
2018-07-15T03:40:50.420Z,15.50
2018-07-15T03:41:50.415Z,14.90
2018-07-15T03:42:50.412Z,15.30
2018-07-15T03:43:50.409Z,15.00
2018-07-15T03:44:50.405Z,14.90
2018-07-15T03:45:50.409Z,15.00
2018-07-15T03:46:50.405Z,14.80
2018-07-15T03:47:50.400Z,14.80
2018-07-15T03:48:50.397Z,15.20
2018-07-15T03:49:50.397Z,15.20
2018-07-15T03:50:50.395Z,15.20
2018-07-15T03:51:50.391Z,14.80
2018-07-15T03:52:50.388Z,16.60
2018-07-15T03:53:50.381Z,15.70
2018-07-15T03:54:50.378Z,15.20
2018-07-15T03:55:50.375Z,16.00
2018-07-15T03:56:50.372Z,16.50
2018-07-15T03:57:50.374Z,15.30
2018-07-15T03:58:50.377Z,15.10
2018-07-15T03:59:50.370Z,15.50
2018-07-15T04:00:50.532Z,17.00
2018-07-15T04:01:50.359Z,16.80
2018-07-15T04:02:50.356Z,16.70
2018-07-15T04:03:50.358Z,16.60
2018-07-15T04:04:50.356Z,15.90
2018-07-15T04:05:50.349Z,16.50
2018-07-15T04:06:50.346Z,16.50
2018-07-15T04:07:50.344Z,16.60
2018-07-15T04:08:50.393Z,16.60
2018-07-15T04:09:50.344Z,15.90
2018-07-15T04:10:50.338Z,16.80
2018-07-15T04:11:50.336Z,16.90
2018-07-15T04:12:50.333Z,16.90
2018-07-15T04:13:50.326Z,16.10
2018-07-15T04:14:50.328Z,15.00
2018-07-15T04:15:50.322Z,16.70
2018-07-15T04:16:50.318Z,16.00
2018-07-15T04:17:50.320Z,15.70
2018-07-15T04:18:50.320Z,16.30
2018-07-15T04:19:50.310Z,15.00
2018-07-15T04:20:50.308Z,16.00
2018-07-15T04:21:50.310Z,15.30
2018-07-15T04:22:50.308Z,15.50
2018-07-15T04:23:50.304Z,16.10
2018-07-15T04:24:50.301Z,16.20
2018-07-15T04:25:50.296Z,15.80
2018-07-15T04:26:50.292Z,15.00
2018-07-15T04:27:50.290Z,16.40
2018-07-15T04:28:50.287Z,15.80
2018-07-15T04:29:50.289Z,14.80
2018-07-15T04:30:50.287Z,15.00
2018-07-15T04:31:50.285Z,16.90
2018-07-15T04:32:50.282Z,15.90
2018-07-15T04:33:50.276Z,17.30
2018-07-15T04:34:50.273Z,16.30
2018-07-15T04:35:50.275Z,15.90
2018-07-15T04:36:50.274Z,15.90
2018-07-15T04:37:50.274Z,15.50
2018-07-15T04:38:50.261Z,15.70
2018-07-15T04:39:50.260Z,15.70
2018-07-15T04:40:50.256Z,15.70
2018-07-15T04:41:50.258Z,14.60
2018-07-15T04:42:50.256Z,15.60
2018-07-15T04:43:50.279Z,15.00
2018-07-15T04:44:50.254Z,15.60
2018-07-15T04:45:50.246Z,15.00
2018-07-15T04:46:50.244Z,15.00
2018-07-15T04:47:50.241Z,16.50
2018-07-15T04:48:50.240Z,15.50
2018-07-15T04:49:50.241Z,15.40
2018-07-15T04:50:50.247Z,14.40
2018-07-15T04:51:50.232Z,15.80
2018-07-15T04:52:50.229Z,16.20
2018-07-15T04:53:50.232Z,15.30
2018-07-15T04:54:50.229Z,15.20
2018-07-15T04:55:50.229Z,16.20
2018-07-15T04:56:50.225Z,14.70
2018-07-15T04:57:50.223Z,14.50
2018-07-15T04:58:50.217Z,14.70
2018-07-15T04:59:50.215Z,14.80
2018-07-15T05:00:50.211Z,16.10
2018-07-15T05:01:50.255Z,16.10
2018-07-15T05:02:50.214Z,15.50
2018-07-15T05:03:50.212Z,15.50
2018-07-15T05:04:50.209Z,16.80
2018-07-15T05:05:50.204Z,14.80
2018-07-15T05:06:50.203Z,16.50
2018-07-15T05:07:50.210Z,14.90
2018-07-15T05:08:50.206Z,15.80
2018-07-15T05:09:50.202Z,14.80
2018-07-15T05:10:50.202Z,15.20
2018-07-15T05:11:50.203Z,15.50
2018-07-15T05:12:50.204Z,15.10
2018-07-15T05:13:50.209Z,14.70
2018-07-15T05:14:50.213Z,14.60
2018-07-15T05:15:50.212Z,15.90
2018-07-15T05:16:50.214Z,15.10
2018-07-15T05:17:50.212Z,14.90
2018-07-15T05:18:50.213Z,15.60
2018-07-15T05:19:50.215Z,15.00
2018-07-15T05:20:50.217Z,14.70
2018-07-15T05:21:50.227Z,15.20
2018-07-15T05:22:50.228Z,15.80
2018-07-15T05:23:50.228Z,14.40
2018-07-15T05:24:50.235Z,14.90
2018-07-15T05:25:50.238Z,14.60
2018-07-15T05:26:50.243Z,15.60
2018-07-15T05:27:50.248Z,15.80
2018-07-15T05:28:50.251Z,16.00
2018-07-15T05:29:50.251Z,14.60
2018-07-15T05:30:50.256Z,15.70
2018-07-15T05:31:50.261Z,15.90
2018-07-15T05:32:50.268Z,13.70
2018-07-15T05:33:50.275Z,14.00
2018-07-15T05:34:50.342Z,14.20
2018-07-15T05:35:50.284Z,15.50
2018-07-15T05:36:50.289Z,15.90
2018-07-15T05:37:50.290Z,18.10
2018-07-15T05:38:50.296Z,24.20
2018-07-15T05:39:50.307Z,24.60
2018-07-15T05:40:50.314Z,17.20
2018-07-15T05:41:50.315Z,15.40
2018-07-15T05:42:50.320Z,14.50
2018-07-15T05:43:50.328Z,14.40
2018-07-15T05:44:50.333Z,13.70
2018-07-15T05:45:50.345Z,13.80
2018-07-15T05:46:50.352Z,13.20
2018-07-15T05:47:50.358Z,12.00
2018-07-15T05:48:50.369Z,12.40
2018-07-15T05:49:50.368Z,11.90
2018-07-15T05:50:50.377Z,9.50
2018-07-15T05:51:50.419Z,9.50
2018-07-15T05:52:50.389Z,9.60
2018-07-15T05:53:50.402Z,8.00
2018-07-15T05:54:50.409Z,8.40
2018-07-15T05:55:50.411Z,9.70
2018-07-15T05:56:50.465Z,10.10
2018-07-15T05:57:50.457Z,10.40
2018-07-15T05:58:50.440Z,9.70
2018-07-15T05:59:50.448Z,8.50
2018-07-15T06:00:50.456Z,64.20
2018-07-15T06:01:50.458Z,36.50
2018-07-15T06:02:50.486Z,340.90
2018-07-15T06:03:50.525Z,382.90
2018-07-15T06:04:50.492Z,999.90
2018-07-15T06:05:50.499Z,201.60
2018-07-15T06:06:50.506Z,643.60
2018-07-15T06:07:50.516Z,750.30
2018-07-15T06:08:50.525Z,560.90
2018-07-15T06:09:50.531Z,585.00
2018-07-15T06:10:50.644Z,157.00
2018-07-15T06:11:50.556Z,225.70
2018-07-15T06:12:50.564Z,23.70
2018-07-15T06:13:50.579Z,19.40
2018-07-15T06:14:50.577Z,42.00
2018-07-15T06:15:50.600Z,9.00
2018-07-15T06:16:50.597Z,21.90
2018-07-15T06:17:50.611Z,7.30
2018-07-15T06:18:50.622Z,7.30
2018-07-15T06:19:50.633Z,6.60
2018-07-15T06:20:50.647Z,6.50
2018-07-15T06:21:50.650Z,6.50
2018-07-15T06:22:50.767Z,7.60
2018-07-15T06:23:50.670Z,6.30
2018-07-15T06:24:50.682Z,6.00
2018-07-15T06:25:50.697Z,5.70
2018-07-15T06:26:50.708Z,6.20
2018-07-15T06:27:50.714Z,5.30
2018-07-15T06:28:50.723Z,5.50
2018-07-15T06:29:50.742Z,5.90
2018-07-15T06:30:50.752Z,5.50
2018-07-15T06:31:50.832Z,5.40
2018-07-15T06:32:50.775Z,5.20
2018-07-15T06:33:50.782Z,4.80
2018-07-15T06:34:50.794Z,5.20
2018-07-15T06:35:50.806Z,5.50
2018-07-15T06:36:50.818Z,5.10
2018-07-15T06:37:50.835Z,5.10
2018-07-15T06:38:50.846Z,5.00
2018-07-15T06:39:50.860Z,5.20
2018-07-15T06:40:50.872Z,5.20
2018-07-15T06:41:50.879Z,4.80
2018-07-15T06:42:50.893Z,4.80
2018-07-15T06:43:50.908Z,5.00
2018-07-15T06:44:50.921Z,5.40
2018-07-15T06:45:50.928Z,4.60
2018-07-15T06:46:50.942Z,4.70
2018-07-15T06:47:50.954Z,4.60
2018-07-15T06:48:50.966Z,4.50
2018-07-15T06:49:50.985Z,4.50
2018-07-15T06:50:50.999Z,4.50
2018-07-15T06:51:51.012Z,4.50
2018-07-15T06:52:51.026Z,4.70
2018-07-15T06:53:51.068Z,4.60
2018-07-15T06:54:51.047Z,4.30
2018-07-15T06:55:51.104Z,4.20
2018-07-15T06:56:51.077Z,4.10
2018-07-15T06:57:51.092Z,4.30
2018-07-15T06:58:51.110Z,4.30
2018-07-15T06:59:51.118Z,4.00
2018-07-15T07:00:51.133Z,4.20
2018-07-15T07:01:51.148Z,4.10
2018-07-15T07:02:51.163Z,4.20
2018-07-15T07:03:51.177Z,3.80
2018-07-15T07:04:51.192Z,4.40
2018-07-15T07:05:51.201Z,4.20
2018-07-15T07:06:51.214Z,4.00
2018-07-15T07:07:51.235Z,4.10
2018-07-15T07:08:51.243Z,3.90
2018-07-15T07:09:51.263Z,3.90
2018-07-15T07:10:51.277Z,4.00
2018-07-15T07:11:51.291Z,3.80
2018-07-15T07:12:51.304Z,3.80
2018-07-15T07:13:51.315Z,3.90
2018-07-15T07:14:51.331Z,3.60
2018-07-15T07:15:51.347Z,3.60
2018-07-15T07:16:51.361Z,3.50
2018-07-15T07:17:51.372Z,3.30
2018-07-15T07:18:51.386Z,3.40
2018-07-15T07:19:51.401Z,3.40
2018-07-15T07:20:51.415Z,3.20
2018-07-15T07:21:51.436Z,3.40
2018-07-15T07:22:51.450Z,3.10
2018-07-15T07:23:51.466Z,3.10
2018-07-15T07:24:51.479Z,3.20
2018-07-15T07:25:51.491Z,3.10
2018-07-15T07:26:51.509Z,3.10
2018-07-15T07:27:51.520Z,3.40
2018-07-15T07:28:51.576Z,3.50
2018-07-15T07:29:51.553Z,3.50
2018-07-15T07:30:51.569Z,3.40
2018-07-15T07:31:51.582Z,3.40
2018-07-15T07:32:51.602Z,3.40
2018-07-15T07:33:51.615Z,3.40
2018-07-15T07:34:51.630Z,3.30
2018-07-15T07:35:51.647Z,3.40
2018-07-15T07:36:51.663Z,3.60
2018-07-15T07:37:51.673Z,3.50
2018-07-15T07:38:51.789Z,3.40
2018-07-15T07:39:51.704Z,3.40
2018-07-15T07:40:51.718Z,3.20
2018-07-15T07:41:51.746Z,3.50
2018-07-15T07:42:51.756Z,3.30
2018-07-15T07:43:51.771Z,3.40
2018-07-15T07:44:51.785Z,3.30
2018-07-15T07:45:51.798Z,3.20
2018-07-15T07:46:51.848Z,3.20
2018-07-15T07:47:51.833Z,3.10
2018-07-15T07:48:51.848Z,3.10
2018-07-15T07:49:51.860Z,2.60
2018-07-15T07:50:51.876Z,2.70
2018-07-15T07:51:51.893Z,2.60
2018-07-15T07:52:51.908Z,2.90
2018-07-15T07:53:51.929Z,2.80
2018-07-15T07:54:51.945Z,2.80
2018-07-15T07:55:51.962Z,2.70
2018-07-15T07:56:51.977Z,2.90
2018-07-15T07:57:51.988Z,2.80
2018-07-15T07:58:52.003Z,2.60
2018-07-15T07:59:52.019Z,2.60
2018-07-15T08:00:52.035Z,2.50
2018-07-15T08:01:52.110Z,1.90
2018-07-15T08:02:52.072Z,1.80
2018-07-15T08:03:52.084Z,1.80
2018-07-15T08:04:52.099Z,1.90
2018-07-15T08:05:52.120Z,1.90
2018-07-15T08:06:52.137Z,2.00
2018-07-15T08:07:52.155Z,1.90
2018-07-15T08:08:52.170Z,2.10
2018-07-15T08:09:52.182Z,2.00
2018-07-15T08:10:52.199Z,1.90
2018-07-15T08:11:52.217Z,2.00
2018-07-15T08:12:52.231Z,2.00
2018-07-15T08:13:52.250Z,2.20
2018-07-15T08:14:52.268Z,2.10
2018-07-15T08:15:52.284Z,1.90
2018-07-15T08:16:52.300Z,2.40
2018-07-15T08:17:52.314Z,2.60
2018-07-15T08:18:52.329Z,2.70
2018-07-15T08:19:52.351Z,2.70
2018-07-15T08:20:52.366Z,2.70
2018-07-15T08:21:52.381Z,2.60
2018-07-15T08:22:52.396Z,2.50
2018-07-15T08:23:52.414Z,2.50
2018-07-15T08:24:52.430Z,2.40
2018-07-15T08:25:52.452Z,2.40
2018-07-15T08:26:52.470Z,2.50
2018-07-15T08:27:52.486Z,2.30
2018-07-15T08:28:52.504Z,2.40
2018-07-15T08:29:52.516Z,2.40
2018-07-15T08:30:52.532Z,2.30
2018-07-15T08:31:52.549Z,1.90
2018-07-15T08:32:52.566Z,1.90
2018-07-15T08:33:52.588Z,1.80
2018-07-15T08:34:52.626Z,1.80
2018-07-15T08:35:52.620Z,1.90
2018-07-15T08:36:52.635Z,2.00
2018-07-15T08:37:52.657Z,1.80
2018-07-15T08:38:52.675Z,1.90
2018-07-15T08:39:52.694Z,1.90
2018-07-15T08:40:52.722Z,2.10
2018-07-15T08:41:52.728Z,2.30
2018-07-15T08:42:52.741Z,2.10
2018-07-15T08:43:52.759Z,1.90
2018-07-15T08:44:52.775Z,1.90
2018-07-15T08:45:52.859Z,1.90
2018-07-15T08:46:52.816Z,2.00
2018-07-15T08:47:52.837Z,1.90
2018-07-15T08:48:52.852Z,2.00
2018-07-15T08:49:52.867Z,2.00
2018-07-15T08:50:52.888Z,2.10
2018-07-15T08:51:52.908Z,2.70
2018-07-15T08:52:52.925Z,2.80
2018-07-15T08:53:52.940Z,3.00
2018-07-15T08:54:52.959Z,2.80
2018-07-15T08:55:52.977Z,2.60
2018-07-15T08:56:52.995Z,3.00
2018-07-15T08:57:53.019Z,2.90
2018-07-15T08:58:53.038Z,2.90
2018-07-15T08:59:53.058Z,2.90
2018-07-15T09:00:53.075Z,3.20
2018-07-15T09:01:53.093Z,2.90
2018-07-15T09:02:53.107Z,3.20
2018-07-15T09:03:53.123Z,3.20
2018-07-15T09:04:53.141Z,3.10
2018-07-15T09:05:53.164Z,2.90
2018-07-15T09:06:53.183Z,3.00
2018-07-15T09:07:53.196Z,2.80
2018-07-15T09:08:53.216Z,2.90
2018-07-15T09:09:53.237Z,3.20
2018-07-15T09:10:53.255Z,3.20
2018-07-15T09:11:53.272Z,3.20
2018-07-15T09:12:53.289Z,3.30
2018-07-15T09:13:53.306Z,3.30
2018-07-15T09:14:53.322Z,3.40
2018-07-15T09:15:53.343Z,3.20
2018-07-15T09:16:53.358Z,3.20
2018-07-15T09:17:53.382Z,3.20
2018-07-15T09:18:53.400Z,3.20
2018-07-15T09:19:53.417Z,3.10
2018-07-15T09:20:53.435Z,3.00
2018-07-15T09:21:53.532Z,3.00
2018-07-15T09:22:53.467Z,3.00
2018-07-15T09:23:53.492Z,3.10
2018-07-15T09:24:53.509Z,3.10
2018-07-15T09:25:53.522Z,3.30
2018-07-15T09:26:53.539Z,3.50
2018-07-15T09:27:53.576Z,3.40
2018-07-15T09:28:53.575Z,3.30
2018-07-15T09:29:53.597Z,3.20
2018-07-15T09:30:53.615Z,3.10
2018-07-15T09:31:53.634Z,3.10
2018-07-15T09:32:53.650Z,3.20
2018-07-15T09:33:53.665Z,3.10
2018-07-15T09:34:53.682Z,3.10
2018-07-15T09:35:53.708Z,3.40
2018-07-15T09:36:53.718Z,3.50
2018-07-15T09:37:53.742Z,3.10
2018-07-15T09:38:53.764Z,3.20
2018-07-15T09:39:53.772Z,3.40
2018-07-15T09:40:53.791Z,3.70
2018-07-15T09:41:53.813Z,3.60
2018-07-15T09:42:53.832Z,3.30
2018-07-15T09:43:53.850Z,3.20
2018-07-15T09:44:53.869Z,3.00
2018-07-15T09:45:53.882Z,3.10
2018-07-15T09:46:53.899Z,3.10
2018-07-15T09:47:53.917Z,3.10
2018-07-15T09:48:53.935Z,3.00
2018-07-15T09:49:53.960Z,3.10
2018-07-15T09:50:53.978Z,3.20
2018-07-15T09:51:53.999Z,3.20
2018-07-15T09:52:54.016Z,3.20
2018-07-15T09:53:54.030Z,3.20
2018-07-15T09:54:54.050Z,3.60
2018-07-15T09:55:54.074Z,3.50
2018-07-15T09:56:54.092Z,3.30
2018-07-15T09:57:54.111Z,3.40
2018-07-15T09:58:54.127Z,3.20
2018-07-15T09:59:54.147Z,3.30
2018-07-15T10:00:54.162Z,3.40
2018-07-15T10:01:54.185Z,3.50
2018-07-15T10:02:54.204Z,3.30
2018-07-15T10:03:54.226Z,3.20
2018-07-15T10:04:54.242Z,3.50
2018-07-15T10:05:54.256Z,3.30
2018-07-15T10:06:54.274Z,3.20
2018-07-15T10:07:54.293Z,3.10
2018-07-15T10:08:54.310Z,3.00
2018-07-15T10:09:54.334Z,3.20
2018-07-15T10:10:54.353Z,3.20
2018-07-15T10:11:54.369Z,3.20
2018-07-15T10:12:54.387Z,3.20
2018-07-15T10:13:54.409Z,3.20
2018-07-15T10:14:54.431Z,3.20
2018-07-15T10:15:54.450Z,3.30
2018-07-15T10:16:54.469Z,3.10
2018-07-15T10:17:54.484Z,3.60
2018-07-15T10:18:54.534Z,3.50
2018-07-15T10:19:54.522Z,3.60
2018-07-15T10:20:54.537Z,3.80
2018-07-15T10:21:54.561Z,3.80
2018-07-15T10:22:54.578Z,3.90
2018-07-15T10:23:54.597Z,3.70
2018-07-15T10:24:54.615Z,3.80
2018-07-15T10:25:54.628Z,3.70
2018-07-15T10:26:54.647Z,3.70
2018-07-15T10:27:54.670Z,4.00
2018-07-15T10:28:54.688Z,3.80
2018-07-15T10:29:54.701Z,3.80
2018-07-15T10:30:54.721Z,3.50
2018-07-15T10:31:54.741Z,3.70
2018-07-15T10:32:54.755Z,3.90
2018-07-15T10:33:54.780Z,4.10
2018-07-15T10:34:54.798Z,4.20
2018-07-15T10:35:54.818Z,4.20
2018-07-15T10:36:54.835Z,4.50
2018-07-15T10:37:54.847Z,4.40
2018-07-15T10:38:54.881Z,4.30
2018-07-15T10:39:54.886Z,4.30
2018-07-15T10:40:54.902Z,4.10
2018-07-15T10:41:54.929Z,4.20
2018-07-15T10:42:54.943Z,3.90
2018-07-15T10:43:54.958Z,3.80
2018-07-15T10:44:54.976Z,4.00
2018-07-15T10:45:55.002Z,4.00
2018-07-15T10:46:55.016Z,4.00
2018-07-15T10:47:55.037Z,4.20
2018-07-15T10:48:55.054Z,4.20
2018-07-15T10:49:55.067Z,4.40
2018-07-15T10:50:55.089Z,4.20
2018-07-15T10:51:55.104Z,4.50
2018-07-15T10:52:55.148Z,4.50
2018-07-15T10:53:55.146Z,4.30
2018-07-15T10:54:55.167Z,4.20
2018-07-15T10:55:55.183Z,4.50
2018-07-15T10:56:55.203Z,4.50
2018-07-15T10:57:55.215Z,4.80
2018-07-15T10:58:55.232Z,4.50
2018-07-15T10:59:55.257Z,4.60
2018-07-15T11:00:55.276Z,4.70
2018-07-15T11:01:55.289Z,4.60
2018-07-15T11:02:55.308Z,4.80
2018-07-15T11:03:55.326Z,4.90
2018-07-15T11:04:55.344Z,4.80
2018-07-15T11:05:55.368Z,5.30
2018-07-15T11:06:55.385Z,4.70
2018-07-15T11:07:55.404Z,4.70
2018-07-15T11:08:55.421Z,4.80
2018-07-15T11:09:55.434Z,4.80
2018-07-15T11:10:55.454Z,4.90
2018-07-15T11:11:55.473Z,5.00
2018-07-15T11:12:55.489Z,5.10
2018-07-15T11:13:55.514Z,5.00
2018-07-15T11:14:55.532Z,4.90
2018-07-15T11:15:55.546Z,4.90
2018-07-15T11:16:55.562Z,5.30
2018-07-15T11:17:55.591Z,5.40
2018-07-15T11:18:55.604Z,5.30
2018-07-15T11:19:55.621Z,5.60
2018-07-15T11:20:55.638Z,5.40
2018-07-15T11:21:55.653Z,5.60
2018-07-15T11:22:55.674Z,5.40
2018-07-15T11:23:55.689Z,6.30
2018-07-15T11:24:55.715Z,6.80
2018-07-15T11:25:55.726Z,6.70
2018-07-15T11:26:55.744Z,6.70
2018-07-15T11:27:55.762Z,6.90
2018-07-15T11:28:55.777Z,6.90
2018-07-15T11:29:55.789Z,6.90
2018-07-15T11:30:55.881Z,7.30
2018-07-15T11:31:55.826Z,7.50
2018-07-15T11:32:55.840Z,7.10
2018-07-15T11:33:55.850Z,7.20
2018-07-15T11:34:55.865Z,7.10
2018-07-15T11:35:55.878Z,7.80
2018-07-15T11:36:55.891Z,8.10
2018-07-15T11:37:55.909Z,8.10
2018-07-15T11:38:55.977Z,8.70
2018-07-15T11:39:55.936Z,8.20
2018-07-15T11:40:55.951Z,8.00
2018-07-15T11:41:55.956Z,7.90
2018-07-15T11:42:55.968Z,8.10
2018-07-15T11:43:55.977Z,8.50
2018-07-15T11:44:55.989Z,8.30
2018-07-15T11:45:56.011Z,8.40
2018-07-15T11:46:56.013Z,8.60
2018-07-15T11:47:56.020Z,8.40
2018-07-15T11:48:56.028Z,8.80
2018-07-15T11:49:56.043Z,8.60
2018-07-15T11:50:56.054Z,8.00
2018-07-15T11:51:56.062Z,8.10
2018-07-15T11:52:56.070Z,8.10
2018-07-15T11:53:56.075Z,9.30
2018-07-15T11:54:56.094Z,8.20
2018-07-15T11:55:56.092Z,8.30
2018-07-15T11:56:56.100Z,8.30
2018-07-15T11:57:56.114Z,8.10
2018-07-15T11:58:56.121Z,8.60
2018-07-15T11:59:56.131Z,8.40
2018-07-15T12:00:56.139Z,8.60
2018-07-15T12:01:56.180Z,8.60
2018-07-15T12:02:56.150Z,8.40
2018-07-15T12:03:56.162Z,8.30
2018-07-15T12:04:56.168Z,9.00
2018-07-15T12:05:56.171Z,8.60
2018-07-15T12:06:56.181Z,8.70
2018-07-15T12:07:56.187Z,9.20
2018-07-15T12:08:56.193Z,8.70
2018-07-15T12:09:56.205Z,8.60
2018-07-15T12:10:56.236Z,8.90
2018-07-15T12:11:56.216Z,9.10
2018-07-15T12:12:56.224Z,9.10
2018-07-15T12:13:56.234Z,8.80
2018-07-15T12:14:56.241Z,8.80
2018-07-15T12:15:56.247Z,9.00
2018-07-15T12:16:56.254Z,8.60
2018-07-15T12:17:56.255Z,9.00
2018-07-15T12:18:56.262Z,8.80
2018-07-15T12:19:56.274Z,9.50
2018-07-15T12:20:56.279Z,9.10
2018-07-15T12:21:56.281Z,8.90
2018-07-15T12:22:56.287Z,8.90
2018-07-15T12:23:56.295Z,8.80
2018-07-15T12:24:56.302Z,9.00
2018-07-15T12:25:56.310Z,8.60
2018-07-15T12:26:56.317Z,8.90
2018-07-15T12:27:56.324Z,8.80
2018-07-15T12:28:56.329Z,8.40
2018-07-15T12:29:56.335Z,8.90
2018-07-15T12:30:56.340Z,9.00
2018-07-15T12:31:56.343Z,9.00
2018-07-15T12:32:56.349Z,8.70
2018-07-15T12:33:56.358Z,8.70
2018-07-15T12:34:56.366Z,9.10
2018-07-15T12:35:56.368Z,9.40
2018-07-15T12:36:56.372Z,8.70
2018-07-15T12:37:56.383Z,7.60
2018-07-15T12:38:56.389Z,7.20
2018-07-15T12:39:56.396Z,8.00
2018-07-15T12:40:56.401Z,7.50
2018-07-15T12:41:56.403Z,7.10
2018-07-15T12:42:56.412Z,8.00
2018-07-15T12:43:56.416Z,8.80
2018-07-15T12:44:56.421Z,8.70
2018-07-15T12:45:56.431Z,9.00
2018-07-15T12:46:56.438Z,8.80
2018-07-15T12:47:56.443Z,9.60
2018-07-15T12:48:56.448Z,8.10
2018-07-15T12:52:56.478Z,8.80
2018-07-15T12:53:56.476Z,8.60
2018-07-15T12:54:56.485Z,8.60
2018-07-15T12:55:56.488Z,8.50
2018-07-15T12:56:56.494Z,9.20
2018-07-15T12:57:56.510Z,8.70
2018-07-15T12:58:56.500Z,8.60
2018-07-15T12:59:56.511Z,8.80
2018-07-15T13:00:56.512Z,8.60
2018-07-15T13:01:56.522Z,8.50
2018-07-15T13:02:56.527Z,8.40
2018-07-15T13:03:56.533Z,8.90
2018-07-15T13:04:56.540Z,8.50
2018-07-15T13:05:56.538Z,9.30
2018-07-15T13:06:56.544Z,9.00
2018-07-15T13:07:56.554Z,8.40
2018-07-15T13:08:56.557Z,8.50